Latest Coastal Weather Observations for Tasman Island

IDT60701

Issued at 8:32 pm EST Friday 29 May 2015 (issued every 10 minutes, with the page automatically refreshed every 10 minutes)

About coastal observations | Map of coastal stations | Coastal observations for TAS | Marine services | Other Formats
Station Details ID: 094155 Name: TASMAN ISLAND Lat: -43.24 Lon: 148.00 Height: 240.0 m
Data from the previous 72 hours. | See also: Recent months at Tasman Island
Date/Time
EST
Temp

°C
Wind Pressure Rain
since 9am
mm
Weather Cloud Vis
km
Sea
Height
m
Swell
Dir
 
Speed
knots
Gust
knots
hPa Trend Height
m
Period
s
Dir
29/08:30pm 8.9 NW 20 34 1010.4 - 0.0 - - - - - - -
29/08:00pm 8.9 NNW 19 29 1010.6 - 0.0 - - - - - - -
29/07:33pm 9.1 NNW 22 32 1010.6 - 0.0 - - - - - - -
29/07:30pm 9.1 NW 23 32 1010.5 - 0.0 - - - - - - -
29/07:00pm 9.0 NNW 21 31 1010.5 - 0.0 - - - - - - -
29/06:40pm 9.0 NNW 20 30 1010.5 - 0.0 - - - - - - -
29/06:30pm 9.1 NW 21 30 1010.6 - 0.0 - - - - - - -
29/06:01pm 8.9 NW 19 29 1010.6 - 0.0 - - - - - - -
29/06:00pm 8.8 NW 19 28 1010.6 - 0.0 - - - - - - -
29/05:30pm 9.3 NW 21 30 1010.6 - 0.0 - - - - - - -
29/05:00pm 9.2 NW 21 28 1010.5 - 0.0 - - - - - - -
29/04:30pm 9.3 NW 20 30 1010.5 - 0.0 - - - - - - -
29/04:24pm 9.3 NW 20 30 1010.4 - 0.0 - - - - - - -
29/04:00pm 9.4 NW 13 18 1010.7 - 0.0 - - - - - - -
29/03:30pm 10.2 NW 11 16 1010.7 - 0.0 - - - - - - -
29/03:00pm 9.9 NW 16 25 1010.4 - 0.0 - - - - - - -
29/02:30pm 10.1 WNW 16 25 1010.1 - 0.0 - - - - - - -
29/02:00pm 10.2 WNW 13 21 1010.4 - 0.0 - - - - - - -
29/01:30pm 9.8 WNW 15 24 1010.1 - 0.0 - - - - - - -
29/01:00pm 9.8 NW 14 20 1010.3 - 0.0 - - - - - - -
29/12:30pm 9.3 WNW 8 19 1010.0 - 0.0 - - - - - - -
29/12:00pm 9.0 WNW 12 23 1009.7 - 0.0 - - - - - - -
29/11:51am 8.8 WNW 16 27 1009.8 - 0.0 - - - - - - -
29/11:30am 8.4 WNW 17 27 1009.9 - 0.0 - - - - - - -
29/11:01am 8.1 WNW 15 30 1010.0 - 0.0 - - - - - - -
29/11:00am 8.1 WNW 15 30 1010.0 - 0.0 - - - - - - -
29/10:49am 7.9 NW 23 33 1009.9 - 0.0 - - - - - - -
29/10:30am 7.7 WNW 20 28 1010.3 - 0.0 - - - - - - -
29/10:00am 7.3 NW 20 31 1009.9 - 0.0 - - - - - - -
29/09:30am 7.2 NW 20 33 1009.6 - 0.0 - - - - - - -
29/09:00am 6.8 WNW 17 32 1009.5 - 2.4 - - - - - - -
29/08:30am 6.6 WNW 15 26 1009.6 - 2.4 - - - - - - -
29/08:28am 6.6 WNW 15 26 1009.6 - 2.4 - - - - - - -
29/08:00am 6.1 WNW 13 23 1009.5 - 2.4 - - - - - - -
29/07:30am 5.9 NW 9 23 1008.6 - 2.4 - - - - - - -
29/07:00am 5.9 NW 9 23 1007.9 - 2.4 - - - - - - -
29/06:30am 5.5 WSW 6 18 1007.5 - 2.4 - - - - - - -
29/06:00am 5.5 WNW 11 24 1007.1 - 2.4 - - - - - - -
29/05:30am 5.0 WNW 18 30 1006.6 - 2.4 - - - - - - -
29/05:00am 4.9 WNW 21 32 1006.5 - 2.4 - - - - - - -
29/04:40am 4.5 NW 12 29 1006.4 - 2.4 - - - - - - -
29/04:30am 5.5 ESE 8 27 1006.3 - 2.4 - - - - - - -
29/04:00am 6.7 NW 14 28 1006.0 - 2.4 - - - - - - -
29/03:40am 6.9 WNW 23 34 1005.1 - 2.4 - - - - - - -
29/03:30am 6.9 NW 25 33 1005.3 - 2.4 - - - - - - -
29/03:00am 7.0 NW 18 30 1005.4 - 2.4 - - - - - - -
29/02:30am 7.4 WNW 22 33 1005.2 - 2.4 - - - - - - -
29/02:00am 7.8 WNW 20 37 1004.6 - 2.4 - - - - - - -
29/01:30am 7.7 WNW 15 32 1004.5 - 2.4 - - - - - - -
29/01:27am 7.8 WNW 12 29 1004.6 - 2.4 - - - - - - -
29/01:19am 7.7 WNW 14 27 1004.6 - 2.4 - - - - - - -
29/01:00am 7.7 WNW 22 36 1004.3 - 2.4 - - - - - - -
29/12:30am 8.1 NW 24 39 1004.4 - 2.2 - - - - - - -
29/12:00am 8.1 WNW 18 32 1004.4 - 2.2 - - - - - - -
 
Date/Time
EST
Temp

°C
Wind Pressure Rain
since 9am
mm
Weather Cloud Vis
km
Sea
Height
m
Swell
Dir
 
Speed
knots
Gust
knots
hPa Trend Height
m
Period
s
Dir
28/11:40pm 7.9 WNW 20 31 1004.4 - 2.2 - - - - - - -
28/11:30pm 8.0 WNW 17 24 1004.7 - 2.2 - - - - - - -
28/11:00pm 8.1 NW 17 23 1004.9 - 2.2 - - - - - - -
28/10:30pm 8.4 NW 19 26 1005.0 - 2.2 - - - - - - -
28/10:00pm 8.3 NW 18 26 1005.0 - 2.2 - - - - - - -
28/09:30pm 8.5 NW 19 27 1004.9 - 2.2 - - - - - - -
28/09:21pm 8.4 NW 16 26 1004.9 - 2.2 - - - - - - -
28/09:00pm 8.1 NW 11 17 1005.2 - 2.2 Recent precip. - - - - - -
28/08:30pm 9.3 WNW 7 11 1005.3 - 0.6 - - - - - - -
28/08:00pm 9.1 NW 12 17 1005.0 - 0.6 - - - - - - -
28/07:30pm 9.0 WNW 11 16 1004.8 - 0.6 - - - - - - -
28/07:00pm 8.9 WNW 11 16 1004.3 - 0.6 - - - - - - -
28/06:30pm 9.3 NW 5 18 1004.4 - 0.6 - - - - - - -
28/06:00pm 10.0 NW 6 16 1004.7 - 0.6 Recent precip. - - - - - -
28/05:30pm 11.2 WSW 12 31 1004.1 - 0.4 - - - - - - -
28/05:26pm 11.8 WNW 17 31 1004.2 - 0.4 - - - - - - -
28/05:16pm 12.5 NW 21 31 1003.8 - 0.0 - - - - - - -
28/05:00pm 12.7 NW 21 29 1003.6 - 0.0 - - - - - - -
28/04:44pm 12.6 NW 19 30 1003.5 - 0.0 - - - - - - -
28/04:30pm 12.1 NW 17 24 1003.4 - 0.0 - - - - - - -
28/04:06pm 12.6 NW 15 25 1003.1 - 0.0 - - - - - - -
28/04:00pm 12.8 NW 17 25 1003.3 - 0.0 - - - - - - -
28/03:47pm 12.8 NW 15 25 1003.4 - 0.0 - - - - - - -
28/03:30pm 12.7 NW 15 23 1003.6 - 0.0 - - - - - - -
28/03:06pm 12.6 NW 15 27 1003.8 - 0.0 - - - - - - -
28/03:00pm 12.8 NW 12 18 1003.7 - 0.0 - - - - - - -
28/02:37pm 12.8 NW 19 29 1003.7 - 0.0 - - - - - - -
28/02:30pm 12.8 NW 21 29 1003.9 - 0.0 - - - - - - -
28/02:14pm 13.0 NW 15 27 1004.3 - 0.0 - - - - - - -
28/02:00pm 13.6 N 11 16 1004.5 - 0.0 - - - - - - -
28/01:30pm 14.4 N 11 17 1004.6 - 0.0 - - - - - - -
28/01:00pm 14.9 NW 8 16 1005.3 - 0.0 - - - - - - -
28/12:36pm 14.0 N 16 27 1005.4 - 0.0 - - - - - - -
28/12:30pm 14.0 N 18 26 1005.5 - 0.0 - - - - - - -
28/12:00pm 14.6 N 13 23 1006.2 - 0.0 - - - - - - -
28/11:30am 14.8 N 10 17 1007.0 - 0.0 - - - - - - -
28/11:01am 14.3 NNW 15 30 1007.7 - 0.0 - - - - - - -
28/11:00am 14.3 NNW 14 23 1007.7 - 0.0 - - - - - - -
28/10:30am 14.1 NNW 15 26 1008.3 - 0.0 - - - - - - -
28/10:14am 14.0 NNW 17 27 1008.3 - 0.0 - - - - - - -
28/10:00am 13.8 NNW 17 24 1008.4 - 0.0 - - - - - - -
28/09:30am 13.4 NNW 18 25 1008.4 - 0.0 - - - - - - -
28/09:01am 13.0 NW 20 31 1008.4 - 0.0 - - - - - - -
28/09:00am 12.9 NNW 20 29 1008.4 - 0.0 - - - - - - -
28/08:30am 12.6 NW 23 33 1008.5 - 0.0 - - - - - - -
28/08:10am 12.3 NW 23 33 1008.4 - 0.0 - - - - - - -
28/08:00am 12.2 NW 23 32 1008.5 - 0.0 - - - - - - -
28/07:37am 12.0 NNW 20 31 1008.7 - 0.0 - - - - - - -
28/07:30am 11.9 NNW 18 26 1008.7 - 0.0 - - - - - - -
28/07:00am 11.6 NNW 15 22 1009.0 - 0.0 - - - - - - -
28/06:30am 11.6 NNW 17 24 1008.7 - 0.0 - - - - - - -
28/06:11am 11.4 N 19 29 1008.8 - 0.0 - - - - - - -
28/06:00am 11.1 N 19 24 1008.7 - 0.0 - - - - - - -
28/05:30am 11.1 N 16 21 1009.1 - 0.0 - - - - - - -
28/05:00am 11.6 N 15 19 1009.4 - 0.0 - - - - - - -
28/04:30am 11.9 NNW 14 22 1009.9 - 0.0 - - - - - - -
28/04:00am 11.8 N 17 22 1009.8 - 0.0 - - - - - - -
28/03:30am 11.5 N 17 22 1010.1 - 0.0 - - - - - - -
28/03:00am 11.6 N 18 24 1010.3 - 0.0 - - - - - - -
28/02:30am 11.9 NNW 18 24 1010.5 - 0.0 - - - - - - -
28/02:00am 11.8 N 14 18 1010.7 - 0.0 - - - - - - -
28/01:30am 12.1 N 14 21 1010.9 - 0.0 - - - - - - -
28/01:00am 12.9 NNW 16 22 1011.5 - 0.0 - - - - - - -
28/12:30am 13.3 NNW 19 31 1011.4 - 0.0 - - - - - - -
28/12:00am 13.7 NNW 15 25 1011.5 - 0.0 - - - - - - -
 
Date/Time
EST
Temp

°C
Wind Pressure Rain
since 9am
mm
Weather Cloud Vis
km
Sea
Height
m
Swell
Dir
 
Speed
knots
Gust
knots
hPa Trend Height
m
Period
s
Dir
27/11:41pm 14.1 NNW 22 32 1011.5 - 0.0 - - - - - - -
27/11:30pm 13.8 NNW 18 27 1011.4 - 0.0 - - - - - - -
27/11:00pm 14.0 NNW 25 37 1011.1 - 0.0 - - - - - - -
27/10:44pm 13.7 NNW 25 41 1010.9 - 0.0 - - - - - - -
27/10:30pm 12.8 NNW 17 28 1011.3 - 0.0 - - - - - - -
27/10:21pm 12.9 N 15 27 1011.4 - 0.0 - - - - - - -
27/10:00pm 13.0 N 12 22 1011.5 - 0.0 - - - - - - -
27/09:47pm 12.8 N 15 27 1011.8 - 0.0 - - - - - - -
27/09:30pm 12.9 N 14 24 1011.8 - 0.0 - - - - - - -
27/09:00pm 13.1 NNW 14 30 1012.0 - 0.0 - - - - - - -
27/08:45pm 13.1 NNW 15 31 1012.1 - 0.0 - - - - - - -
27/08:30pm 12.9 NNW 14 23 1012.1 - 0.0 - - - - - - -
27/08:00pm 12.8 N 17 25 1012.3 - 0.0 - - - - - - -
27/07:30pm 12.5 N 20 28 1012.1 - 0.0 - - - - - - -
27/07:00pm 12.8 N 23 28 1012.1 - 0.0 - - - - - - -
27/06:30pm 11.9 N 21 27 1012.2 - 0.0 - - - - - - -
27/06:00pm 12.1 N 21 27 1012.2 - 0.0 - - - - - - -
27/05:30pm 11.9 N 19 24 1012.6 - 0.0 - - - - - - -
27/05:00pm 11.9 N 23 28 1012.5 - 0.0 - - - - - - -
27/04:30pm 11.8 N 23 27 1012.7 - 0.0 - - - - - - -
27/04:00pm 12.1 N 23 31 1012.9 - 0.0 - - - - - - -
27/03:30pm 12.1 N 25 31 1013.0 - 0.0 - - - - - - -
27/03:00pm 12.2 N 24 31 1013.1 - 0.0 - - - - - - -
27/02:39pm 12.1 N 21 31 1013.2 - 0.0 - - - - - - -
27/02:30pm 11.7 N 23 29 1013.3 - 0.0 - - - - - - -
27/02:00pm 11.4 N 21 29 1013.5 - 0.0 - - - - - - -
27/01:47pm 11.4 N 18 28 1013.9 - 0.0 - - - - - - -
27/01:30pm 11.3 NNE 20 26 1014.2 - 0.0 - - - - - - -
27/01:14pm 11.3 N 19 31 1014.2 - 0.0 - - - - - - -
27/01:00pm 11.4 N 19 28 1014.4 - 0.0 - - - - - - -
27/12:37pm 11.4 N 21 32 1014.9 - 0.0 - - - - - - -
27/12:30pm 11.2 N 19 28 1014.8 - 0.0 - - - - - - -
27/12:00pm 11.0 N 23 33 1015.2 - 0.0 - - - - - - -
27/11:53am 10.9 N 23 34 1015.2 - 0.0 - - - - - - -
27/11:30am 10.8 N 24 32 1015.7 - 0.0 - - - - - - -
27/11:00am 10.8 N 23 29 1016.1 - 0.0 - - - - - - -
27/10:40am 11.0 N 19 30 1016.3 - 0.0 - - - - - - -
27/10:30am 11.1 N 21 31 1016.3 - 0.0 - - - - - - -
27/10:00am 10.8 N 25 35 1016.5 - 0.0 - - - - - - -
27/09:49am 10.8 N 24 35 1016.7 - 0.0 - - - - - - -
27/09:30am 10.5 N 24 31 1017.1 - 0.0 - - - - - - -
27/09:00am 10.4 N 24 30 1017.2 - 0.0 - - - - - - -
27/08:30am 10.1 N 23 30 1017.5 - 0.0 - - - - - - -
27/08:00am 10.0 N 21 26 1017.7 - 0.0 - - - - - - -
27/07:30am 9.6 N 19 23 1017.9 - 0.0 - - - - - - -
27/07:00am 9.6 N 18 24 1018.2 - 0.0 - - - - - - -
27/06:30am 9.4 N 17 24 1018.3 - 0.0 - - - - - - -
27/06:00am 9.7 N 19 29 1018.4 - 0.0 - - - - - - -
27/05:30am 9.7 N 19 24 1018.9 - 0.0 - - - - - - -
27/05:00am 9.7 N 16 23 1019.3 - 0.0 - - - - - - -
27/04:30am 9.9 N 16 21 1019.6 - 0.0 - - - - - - -
27/04:00am 10.0 N 17 21 1020.0 - 0.0 - - - - - - -
27/03:30am 10.1 N 16 25 1020.4 - 0.0 - - - - - - -
27/03:00am 10.6 N 18 23 1021.1 - 0.0 - - - - - - -
27/02:30am 10.4 N 17 22 1021.4 - 0.0 - - - - - - -
27/02:00am 10.2 N 17 23 1021.5 - 0.0 - - - - - - -
27/01:30am 10.0 NNE 13 18 1021.7 - 0.0 - - - - - - -
27/01:00am 10.0 N 14 17 1022.1 - 0.0 - - - - - - -
27/12:30am 9.9 N 15 18 1022.5 - 0.0 - - - - - - -
27/12:00am 10.1 NNE 13 16 1022.7 - 0.0 - - - - - - -
 
Date/Time
EST
Temp

°C
Wind Pressure Rain
since 9am
mm
Weather Cloud Vis
km
Sea
Height
m
Swell
Dir
 
Speed
knots
Gust
knots
hPa Trend Height
m
Period
s
Dir
26/11:30pm 9.8 NNE 12 15 1023.1 - 0.0 - - - - - - -
26/11:00pm 9.5 NNE 10 13 1023.5 - 0.0 - - - - - - -
26/10:30pm 9.3 NNE 8 11 1023.8 - 0.0 - - - - - - -
26/10:00pm 9.4 NNE 8 11 1024.0 - 0.0 - - - - - - -
26/09:30pm 9.2 NNE 6 8 1024.2 - 0.0 - - - - - - -
26/09:00pm 9.1 NE 4 5 1024.4 - 0.0 - - - - - - -

Other Formats:

Comma delimited format used in spreadsheet applications
http://www.bom.gov.au/fwo/IDT60701/IDT60701.95986.axf

JavaScript Object Notation format (JSON) in row-major order
http://www.bom.gov.au/fwo/IDT60701/IDT60701.95986.json